sensor_id;sensor_type;location;lat;lon;timestamp;temperature;humidity
13426;DHT22;6785;57.918;12.530;2023-04-25T00:00:55;9.40;99.90
13426;DHT22;6785;57.918;12.530;2023-04-25T00:03:23;9.30;99.90
13426;DHT22;6785;57.918;12.530;2023-04-25T00:05:50;9.30;99.90
13426;DHT22;6785;57.918;12.530;2023-04-25T00:08:19;9.20;99.90
13426;DHT22;6785;57.918;12.530;2023-04-25T00:10:46;9.10;99.90
13426;DHT22;6785;57.918;12.530;2023-04-25T00:13:14;9.10;99.90
13426;DHT22;6785;57.918;12.530;2023-04-25T00:15:43;9.00;99.90
13426;DHT22;6785;57.918;12.530;2023-04-25T00:18:09;8.90;99.90
13426;DHT22;6785;57.918;12.530;2023-04-25T00:20:36;8.90;99.90
13426;DHT22;6785;57.918;12.530;2023-04-25T00:23:05;8.80;99.90
13426;DHT22;6785;57.918;12.530;2023-04-25T00:25:33;8.80;99.90
13426;DHT22;6785;57.918;12.530;2023-04-25T00:28:00;8.70;99.90
13426;DHT22;6785;57.918;12.530;2023-04-25T00:30:27;8.70;99.90
13426;DHT22;6785;57.918;12.530;2023-04-25T00:32:53;8.70;99.90
13426;DHT22;6785;57.918;12.530;2023-04-25T00:35:20;8.60;99.90
13426;DHT22;6785;57.918;12.530;2023-04-25T00:37:47;8.60;99.90
13426;DHT22;6785;57.918;12.530;2023-04-25T00:40:14;8.60;99.90
13426;DHT22;6785;57.918;12.530;2023-04-25T00:42:42;8.60;99.90
13426;DHT22;6785;57.918;12.530;2023-04-25T00:45:12;8.60;99.90
13426;DHT22;6785;57.918;12.530;2023-04-25T00:47:40;8.50;99.90
13426;DHT22;6785;57.918;12.530;2023-04-25T00:50:09;8.50;99.90
13426;DHT22;6785;57.918;12.530;2023-04-25T00:52:36;8.50;99.90
13426;DHT22;6785;57.918;12.530;2023-04-25T00:55:04;8.50;99.90
13426;DHT22;6785;57.918;12.530;2023-04-25T00:57:31;8.50;99.90
13426;DHT22;6785;57.918;12.530;2023-04-25T01:00:00;8.50;99.90
13426;DHT22;6785;57.918;12.530;2023-04-25T01:02:27;8.50;99.90
13426;DHT22;6785;57.918;12.530;2023-04-25T01:04:55;8.50;99.90
13426;DHT22;6785;57.918;12.530;2023-04-25T01:07:22;8.50;99.90
13426;DHT22;6785;57.918;12.530;2023-04-25T01:09:48;8.50;99.90
13426;DHT22;6785;57.918;12.530;2023-04-25T01:12:17;8.50;99.90
13426;DHT22;6785;57.918;12.530;2023-04-25T01:14:44;8.50;99.90
13426;DHT22;6785;57.918;12.530;2023-04-25T01:17:12;8.50;99.90
13426;DHT22;6785;57.918;12.530;2023-04-25T01:19:40;8.40;99.90
13426;DHT22;6785;57.918;12.530;2023-04-25T01:22:09;8.40;99.90
13426;DHT22;6785;57.918;12.530;2023-04-25T01:24:37;8.40;99.90
13426;DHT22;6785;57.918;12.530;2023-04-25T01:27:04;8.30;99.90
13426;DHT22;6785;57.918;12.530;2023-04-25T01:29:32;8.30;99.90
13426;DHT22;6785;57.918;12.530;2023-04-25T01:31:59;8.20;99.90
13426;DHT22;6785;57.918;12.530;2023-04-25T01:34:26;8.20;99.90
13426;DHT22;6785;57.918;12.530;2023-04-25T01:36:53;8.10;99.90
13426;DHT22;6785;57.918;12.530;2023-04-25T01:39:21;8.20;99.90
13426;DHT22;6785;57.918;12.530;2023-04-25T01:41:48;8.20;99.90
13426;DHT22;6785;57.918;12.530;2023-04-25T01:44:15;8.20;99.90
13426;DHT22;6785;57.918;12.530;2023-04-25T01:46:42;8.20;99.90
13426;DHT22;6785;57.918;12.530;2023-04-25T01:49:08;8.10;99.90
13426;DHT22;6785;57.918;12.530;2023-04-25T01:51:35;8.10;99.90
13426;DHT22;6785;57.918;12.530;2023-04-25T01:54:03;8.10;99.90
13426;DHT22;6785;57.918;12.530;2023-04-25T01:56:32;8.10;99.90
13426;DHT22;6785;57.918;12.530;2023-04-25T01:58:59;8.10;99.90
13426;DHT22;6785;57.918;12.530;2023-04-25T02:01:26;8.10;99.90
13426;DHT22;6785;57.918;12.530;2023-04-25T02:03:52;8.00;99.90
13426;DHT22;6785;57.918;12.530;2023-04-25T02:06:19;8.00;99.90
13426;DHT22;6785;57.918;12.530;2023-04-25T02:08:46;8.00;99.90
13426;DHT22;6785;57.918;12.530;2023-04-25T02:11:13;8.00;99.90
13426;DHT22;6785;57.918;12.530;2023-04-25T02:13:41;8.00;99.90
13426;DHT22;6785;57.918;12.530;2023-04-25T02:16:07;7.90;99.90
13426;DHT22;6785;57.918;12.530;2023-04-25T02:18:34;7.90;99.90
13426;DHT22;6785;57.918;12.530;2023-04-25T02:21:02;7.90;99.90
13426;DHT22;6785;57.918;12.530;2023-04-25T02:23:29;7.80;99.90
13426;DHT22;6785;57.918;12.530;2023-04-25T02:25:56;7.80;99.90
13426;DHT22;6785;57.918;12.530;2023-04-25T02:28:23;7.70;99.90
13426;DHT22;6785;57.918;12.530;2023-04-25T02:30:51;7.70;99.90
13426;DHT22;6785;57.918;12.530;2023-04-25T02:33:18;7.60;99.90
13426;DHT22;6785;57.918;12.530;2023-04-25T02:35:46;7.60;99.90
13426;DHT22;6785;57.918;12.530;2023-04-25T02:38:13;7.60;99.90
13426;DHT22;6785;57.918;12.530;2023-04-25T02:40:40;7.50;99.90
13426;DHT22;6785;57.918;12.530;2023-04-25T02:43:07;7.50;99.90
13426;DHT22;6785;57.918;12.530;2023-04-25T02:45:33;7.50;99.90
13426;DHT22;6785;57.918;12.530;2023-04-25T02:48:02;7.50;99.90
13426;DHT22;6785;57.918;12.530;2023-04-25T02:50:28;7.50;99.90
13426;DHT22;6785;57.918;12.530;2023-04-25T02:52:55;7.50;99.90
13426;DHT22;6785;57.918;12.530;2023-04-25T02:55:22;7.40;99.90
13426;DHT22;6785;57.918;12.530;2023-04-25T02:57:48;7.50;99.90
13426;DHT22;6785;57.918;12.530;2023-04-25T03:00:15;7.60;99.90
13426;DHT22;6785;57.918;12.530;2023-04-25T03:02:42;7.60;99.90
13426;DHT22;6785;57.918;12.530;2023-04-25T03:05:10;7.50;99.90
13426;DHT22;6785;57.918;12.530;2023-04-25T03:07:37;7.50;99.90
13426;DHT22;6785;57.918;12.530;2023-04-25T03:10:05;7.50;99.90
13426;DHT22;6785;57.918;12.530;2023-04-25T03:12:32;7.50;99.90
13426;DHT22;6785;57.918;12.530;2023-04-25T03:14:59;7.50;99.90
13426;DHT22;6785;57.918;12.530;2023-04-25T03:17:26;7.50;99.90
13426;DHT22;6785;57.918;12.530;2023-04-25T03:19:53;7.50;99.90
13426;DHT22;6785;57.918;12.530;2023-04-25T03:22:21;7.50;99.90
13426;DHT22;6785;57.918;12.530;2023-04-25T03:24:48;7.50;99.90
13426;DHT22;6785;57.918;12.530;2023-04-25T03:27:14;7.40;99.90
13426;DHT22;6785;57.918;12.530;2023-04-25T03:29:41;7.40;99.90
13426;DHT22;6785;57.918;12.530;2023-04-25T03:32:08;7.40;99.90
13426;DHT22;6785;57.918;12.530;2023-04-25T03:34:35;7.40;99.90
13426;DHT22;6785;57.918;12.530;2023-04-25T03:37:01;7.40;99.90
13426;DHT22;6785;57.918;12.530;2023-04-25T03:39:30;7.40;99.90
13426;DHT22;6785;57.918;12.530;2023-04-25T03:41:56;7.40;99.90
13426;DHT22;6785;57.918;12.530;2023-04-25T03:44:23;7.40;99.90
13426;DHT22;6785;57.918;12.530;2023-04-25T03:46:50;7.40;99.90
13426;DHT22;6785;57.918;12.530;2023-04-25T03:49:17;7.40;99.90
13426;DHT22;6785;57.918;12.530;2023-04-25T03:51:44;7.40;99.90
13426;DHT22;6785;57.918;12.530;2023-04-25T03:54:11;7.50;99.90
13426;DHT22;6785;57.918;12.530;2023-04-25T03:56:39;7.50;99.90
13426;DHT22;6785;57.918;12.530;2023-04-25T03:59:05;7.50;99.90
13426;DHT22;6785;57.918;12.530;2023-04-25T04:01:33;7.50;99.90
13426;DHT22;6785;57.918;12.530;2023-04-25T04:04:00;7.50;99.90
13426;DHT22;6785;57.918;12.530;2023-04-25T04:06:27;7.50;99.90
13426;DHT22;6785;57.918;12.530;2023-04-25T04:08:54;7.50;99.90
13426;DHT22;6785;57.918;12.530;2023-04-25T04:11:22;7.50;99.90
13426;DHT22;6785;57.918;12.530;2023-04-25T04:13:50;7.50;99.90
13426;DHT22;6785;57.918;12.530;2023-04-25T04:16:17;7.50;99.90
13426;DHT22;6785;57.918;12.530;2023-04-25T04:18:45;7.40;99.90
13426;DHT22;6785;57.918;12.530;2023-04-25T04:21:11;7.50;99.90
13426;DHT22;6785;57.918;12.530;2023-04-25T04:23:38;7.40;99.90
13426;DHT22;6785;57.918;12.530;2023-04-25T04:26:05;7.50;99.90
13426;DHT22;6785;57.918;12.530;2023-04-25T04:28:32;7.50;99.90
13426;DHT22;6785;57.918;12.530;2023-04-25T04:31:00;7.60;99.90
13426;DHT22;6785;57.918;12.530;2023-04-25T04:33:28;7.60;99.90
13426;DHT22;6785;57.918;12.530;2023-04-25T04:35:54;7.60;99.90
13426;DHT22;6785;57.918;12.530;2023-04-25T04:38:22;7.60;99.90
13426;DHT22;6785;57.918;12.530;2023-04-25T04:40:49;7.70;99.90
13426;DHT22;6785;57.918;12.530;2023-04-25T04:43:16;7.70;99.90
13426;DHT22;6785;57.918;12.530;2023-04-25T04:45:44;7.70;99.90
13426;DHT22;6785;57.918;12.530;2023-04-25T04:48:12;7.70;99.90
13426;DHT22;6785;57.918;12.530;2023-04-25T04:50:39;7.70;99.90
13426;DHT22;6785;57.918;12.530;2023-04-25T04:53:06;7.80;99.90
13426;DHT22;6785;57.918;12.530;2023-04-25T04:55:33;7.80;99.90
13426;DHT22;6785;57.918;12.530;2023-04-25T04:58:00;7.80;99.90
13426;DHT22;6785;57.918;12.530;2023-04-25T05:00:26;7.80;99.90
13426;DHT22;6785;57.918;12.530;2023-04-25T05:02:54;7.90;99.90
13426;DHT22;6785;57.918;12.530;2023-04-25T05:05:22;7.90;99.90
13426;DHT22;6785;57.918;12.530;2023-04-25T05:07:49;8.00;99.90
13426;DHT22;6785;57.918;12.530;2023-04-25T05:10:17;8.10;99.90
13426;DHT22;6785;57.918;12.530;2023-04-25T05:12:44;8.10;99.90
13426;DHT22;6785;57.918;12.530;2023-04-25T05:15:10;8.20;99.90
13426;DHT22;6785;57.918;12.530;2023-04-25T05:17:37;8.20;99.90
13426;DHT22;6785;57.918;12.530;2023-04-25T05:20:06;8.30;99.90
13426;DHT22;6785;57.918;12.530;2023-04-25T05:22:35;8.40;99.90
13426;DHT22;6785;57.918;12.530;2023-04-25T05:25:03;8.40;99.90
13426;DHT22;6785;57.918;12.530;2023-04-25T05:27:30;8.40;99.90
13426;DHT22;6785;57.918;12.530;2023-04-25T05:29:56;8.50;99.90
13426;DHT22;6785;57.918;12.530;2023-04-25T05:32:23;8.50;99.90
13426;DHT22;6785;57.918;12.530;2023-04-25T05:34:50;8.60;99.90
13426;DHT22;6785;57.918;12.530;2023-04-25T05:37:17;8.70;99.90
13426;DHT22;6785;57.918;12.530;2023-04-25T05:39:45;8.70;99.90
13426;DHT22;6785;57.918;12.530;2023-04-25T05:42:13;8.70;99.90
13426;DHT22;6785;57.918;12.530;2023-04-25T05:44:40;8.70;99.90
13426;DHT22;6785;57.918;12.530;2023-04-25T05:47:06;8.70;99.90
13426;DHT22;6785;57.918;12.530;2023-04-25T05:49:33;8.80;99.90
13426;DHT22;6785;57.918;12.530;2023-04-25T05:52:00;8.80;99.90
13426;DHT22;6785;57.918;12.530;2023-04-25T05:54:27;8.90;99.90
13426;DHT22;6785;57.918;12.530;2023-04-25T05:56:56;9.00;99.90
13426;DHT22;6785;57.918;12.530;2023-04-25T05:59:23;9.00;99.90
13426;DHT22;6785;57.918;12.530;2023-04-25T06:01:49;9.00;99.90
13426;DHT22;6785;57.918;12.530;2023-04-25T06:04:17;9.10;99.90
13426;DHT22;6785;57.918;12.530;2023-04-25T06:06:43;9.20;99.90
13426;DHT22;6785;57.918;12.530;2023-04-25T06:09:10;9.20;99.90
13426;DHT22;6785;57.918;12.530;2023-04-25T06:11:37;9.40;99.90
13426;DHT22;6785;57.918;12.530;2023-04-25T06:14:06;9.50;99.90
13426;DHT22;6785;57.918;12.530;2023-04-25T06:16:33;9.60;99.90
13426;DHT22;6785;57.918;12.530;2023-04-25T06:18:59;9.40;99.90
13426;DHT22;6785;57.918;12.530;2023-04-25T06:21:26;9.40;99.90
13426;DHT22;6785;57.918;12.530;2023-04-25T06:23:53;9.30;99.90
13426;DHT22;6785;57.918;12.530;2023-04-25T06:26:20;9.30;99.90
13426;DHT22;6785;57.918;12.530;2023-04-25T06:28:47;9.30;99.90
13426;DHT22;6785;57.918;12.530;2023-04-25T06:31:15;9.30;99.90
13426;DHT22;6785;57.918;12.530;2023-04-25T06:33:42;9.30;99.90
13426;DHT22;6785;57.918;12.530;2023-04-25T06:36:08;9.30;99.90
13426;DHT22;6785;57.918;12.530;2023-04-25T06:38:35;9.40;99.90
13426;DHT22;6785;57.918;12.530;2023-04-25T06:41:02;9.50;99.90
13426;DHT22;6785;57.918;12.530;2023-04-25T06:43:28;9.50;99.90
13426;DHT22;6785;57.918;12.530;2023-04-25T06:45:58;9.60;99.90
13426;DHT22;6785;57.918;12.530;2023-04-25T06:48:26;9.50;99.90
13426;DHT22;6785;57.918;12.530;2023-04-25T06:50:54;9.50;99.90
13426;DHT22;6785;57.918;12.530;2023-04-25T06:53:21;9.50;99.90
13426;DHT22;6785;57.918;12.530;2023-04-25T06:55:48;9.50;99.90
13426;DHT22;6785;57.918;12.530;2023-04-25T06:58:15;9.40;99.90
13426;DHT22;6785;57.918;12.530;2023-04-25T07:00:42;9.40;99.90
13426;DHT22;6785;57.918;12.530;2023-04-25T07:03:08;9.50;99.90
13426;DHT22;6785;57.918;12.530;2023-04-25T07:05:36;9.50;99.90
13426;DHT22;6785;57.918;12.530;2023-04-25T07:08:03;9.70;99.90
13426;DHT22;6785;57.918;12.530;2023-04-25T07:10:30;9.80;99.90
13426;DHT22;6785;57.918;12.530;2023-04-25T07:12:57;9.90;99.90
13426;DHT22;6785;57.918;12.530;2023-04-25T07:15:23;9.90;99.90
13426;DHT22;6785;57.918;12.530;2023-04-25T07:17:50;10.00;99.90
13426;DHT22;6785;57.918;12.530;2023-04-25T07:20:17;10.00;99.90
13426;DHT22;6785;57.918;12.530;2023-04-25T07:22:46;10.00;99.90
13426;DHT22;6785;57.918;12.530;2023-04-25T07:25:12;10.00;99.90
13426;DHT22;6785;57.918;12.530;2023-04-25T07:27:39;10.10;99.90
13426;DHT22;6785;57.918;12.530;2023-04-25T07:30:07;10.10;99.90
13426;DHT22;6785;57.918;12.530;2023-04-25T07:32:34;10.10;99.90
13426;DHT22;6785;57.918;12.530;2023-04-25T07:35:01;10.00;99.90
13426;DHT22;6785;57.918;12.530;2023-04-25T07:37:28;9.80;99.90
13426;DHT22;6785;57.918;12.530;2023-04-25T07:39:56;9.70;99.90
13426;DHT22;6785;57.918;12.530;2023-04-25T07:42:23;9.60;99.90
13426;DHT22;6785;57.918;12.530;2023-04-25T07:44:50;9.40;99.90
13426;DHT22;6785;57.918;12.530;2023-04-25T07:47:17;9.40;99.90
13426;DHT22;6785;57.918;12.530;2023-04-25T07:49:45;9.30;99.90
13426;DHT22;6785;57.918;12.530;2023-04-25T07:52:12;9.20;99.90
13426;DHT22;6785;57.918;12.530;2023-04-25T07:54:41;9.10;99.90
13426;DHT22;6785;57.918;12.530;2023-04-25T07:57:09;9.00;99.90
13426;DHT22;6785;57.918;12.530;2023-04-25T07:59:36;9.00;99.90
13426;DHT22;6785;57.918;12.530;2023-04-25T08:02:02;8.80;99.90
13426;DHT22;6785;57.918;12.530;2023-04-25T08:04:29;8.80;99.90
13426;DHT22;6785;57.918;12.530;2023-04-25T08:06:56;8.90;99.90
13426;DHT22;6785;57.918;12.530;2023-04-25T08:09:23;8.90;99.90
13426;DHT22;6785;57.918;12.530;2023-04-25T08:11:50;8.90;99.90
13426;DHT22;6785;57.918;12.530;2023-04-25T08:14:18;8.80;99.90
13426;DHT22;6785;57.918;12.530;2023-04-25T08:16:45;8.90;99.90
13426;DHT22;6785;57.918;12.530;2023-04-25T08:19:12;9.00;99.90
13426;DHT22;6785;57.918;12.530;2023-04-25T08:21:38;9.00;99.90
13426;DHT22;6785;57.918;12.530;2023-04-25T08:24:05;9.00;99.90
13426;DHT22;6785;57.918;12.530;2023-04-25T08:26:32;9.00;99.90
13426;DHT22;6785;57.918;12.530;2023-04-25T08:29:01;9.00;99.90
13426;DHT22;6785;57.918;12.530;2023-04-25T08:31:31;9.00;99.90
13426;DHT22;6785;57.918;12.530;2023-04-25T08:33:57;9.00;99.90
13426;DHT22;6785;57.918;12.530;2023-04-25T08:36:24;9.00;99.90
13426;DHT22;6785;57.918;12.530;2023-04-25T08:38:52;9.10;99.90
13426;DHT22;6785;57.918;12.530;2023-04-25T08:41:21;9.10;99.90
13426;DHT22;6785;57.918;12.530;2023-04-25T08:43:48;9.20;99.90
13426;DHT22;6785;57.918;12.530;2023-04-25T08:46:17;9.50;99.90
13426;DHT22;6785;57.918;12.530;2023-04-25T08:48:46;9.80;99.90
13426;DHT22;6785;57.918;12.530;2023-04-25T08:51:17;9.80;99.90
13426;DHT22;6785;57.918;12.530;2023-04-25T08:53:49;9.90;99.90
13426;DHT22;6785;57.918;12.530;2023-04-25T08:56:17;9.80;99.90
13426;DHT22;6785;57.918;12.530;2023-04-25T08:58:47;9.80;99.90
13426;DHT22;6785;57.918;12.530;2023-04-25T09:01:14;9.80;99.90
13426;DHT22;6785;57.918;12.530;2023-04-25T09:03:42;9.80;99.90
13426;DHT22;6785;57.918;12.530;2023-04-25T09:06:11;9.70;99.90
13426;DHT22;6785;57.918;12.530;2023-04-25T09:08:38;9.60;99.90
13426;DHT22;6785;57.918;12.530;2023-04-25T09:11:05;9.60;99.90
13426;DHT22;6785;57.918;12.530;2023-04-25T09:13:32;9.50;99.90
13426;DHT22;6785;57.918;12.530;2023-04-25T09:15:59;9.40;99.90
13426;DHT22;6785;57.918;12.530;2023-04-25T09:18:27;9.40;99.90
13426;DHT22;6785;57.918;12.530;2023-04-25T09:20:55;9.30;99.90
13426;DHT22;6785;57.918;12.530;2023-04-25T09:23:23;9.40;99.90
13426;DHT22;6785;57.918;12.530;2023-04-25T09:25:52;9.20;99.90
13426;DHT22;6785;57.918;12.530;2023-04-25T09:28:23;9.10;99.90
13426;DHT22;6785;57.918;12.530;2023-04-25T09:30:54;9.00;99.90
13426;DHT22;6785;57.918;12.530;2023-04-25T09:33:27;8.90;99.90
13426;DHT22;6785;57.918;12.530;2023-04-25T09:36:01;8.80;99.90
13426;DHT22;6785;57.918;12.530;2023-04-25T09:38:30;8.80;99.90
13426;DHT22;6785;57.918;12.530;2023-04-25T09:40:57;8.70;99.90
13426;DHT22;6785;57.918;12.530;2023-04-25T09:43:24;8.70;99.90
13426;DHT22;6785;57.918;12.530;2023-04-25T09:45:54;8.80;99.90
13426;DHT22;6785;57.918;12.530;2023-04-25T09:48:24;8.80;99.90
13426;DHT22;6785;57.918;12.530;2023-04-25T09:51:07;9.00;99.90
13426;DHT22;6785;57.918;12.530;2023-04-25T09:53:37;9.10;99.90
13426;DHT22;6785;57.918;12.530;2023-04-25T09:56:05;9.10;99.90
13426;DHT22;6785;57.918;12.530;2023-04-25T09:58:33;9.10;99.90
13426;DHT22;6785;57.918;12.530;2023-04-25T10:01:01;9.20;99.90
13426;DHT22;6785;57.918;12.530;2023-04-25T10:03:30;9.30;99.90
13426;DHT22;6785;57.918;12.530;2023-04-25T10:05:59;9.30;99.90
13426;DHT22;6785;57.918;12.530;2023-04-25T10:08:30;9.40;99.90
13426;DHT22;6785;57.918;12.530;2023-04-25T10:11:00;9.50;99.90
13426;DHT22;6785;57.918;12.530;2023-04-25T10:13:28;9.40;99.90
13426;DHT22;6785;57.918;12.530;2023-04-25T10:15:57;9.60;99.90
13426;DHT22;6785;57.918;12.530;2023-04-25T10:18:25;9.70;99.90
13426;DHT22;6785;57.918;12.530;2023-04-25T10:20:53;9.80;99.90
13426;DHT22;6785;57.918;12.530;2023-04-25T10:23:20;9.70;99.90
13426;DHT22;6785;57.918;12.530;2023-04-25T10:25:48;9.50;99.90
13426;DHT22;6785;57.918;12.530;2023-04-25T10:28:17;9.30;99.90
13426;DHT22;6785;57.918;12.530;2023-04-25T10:30:57;9.00;99.90
13426;DHT22;6785;57.918;12.530;2023-04-25T10:33:32;8.80;99.90
13426;DHT22;6785;57.918;12.530;2023-04-25T10:36:08;8.70;99.90
13426;DHT22;6785;57.918;12.530;2023-04-25T10:38:36;8.60;99.90
13426;DHT22;6785;57.918;12.530;2023-04-25T10:41:03;8.50;99.90
13426;DHT22;6785;57.918;12.530;2023-04-25T10:43:36;8.50;99.90
13426;DHT22;6785;57.918;12.530;2023-04-25T10:46:13;8.50;99.90
13426;DHT22;6785;57.918;12.530;2023-04-25T10:48:45;8.50;99.90
13426;DHT22;6785;57.918;12.530;2023-04-25T10:51:17;8.70;99.90
13426;DHT22;6785;57.918;12.530;2023-04-25T10:53:44;8.90;99.90
13426;DHT22;6785;57.918;12.530;2023-04-25T10:56:11;8.90;99.90
13426;DHT22;6785;57.918;12.530;2023-04-25T10:58:44;8.80;99.90
13426;DHT22;6785;57.918;12.530;2023-04-25T11:01:12;9.00;99.90
13426;DHT22;6785;57.918;12.530;2023-04-25T11:03:40;8.90;99.90
13426;DHT22;6785;57.918;12.530;2023-04-25T11:06:16;8.90;99.90
13426;DHT22;6785;57.918;12.530;2023-04-25T11:08:49;9.00;99.90
13426;DHT22;6785;57.918;12.530;2023-04-25T11:11:17;8.90;99.90
13426;DHT22;6785;57.918;12.530;2023-04-25T11:13:47;8.80;99.90
13426;DHT22;6785;57.918;12.530;2023-04-25T11:16:14;8.80;99.90
13426;DHT22;6785;57.918;12.530;2023-04-25T11:18:41;8.90;99.90
13426;DHT22;6785;57.918;12.530;2023-04-25T11:21:08;8.80;99.90
13426;DHT22;6785;57.918;12.530;2023-04-25T11:23:35;8.70;99.90
13426;DHT22;6785;57.918;12.530;2023-04-25T11:26:02;8.70;99.90
13426;DHT22;6785;57.918;12.530;2023-04-25T11:28:29;8.60;99.90
13426;DHT22;6785;57.918;12.530;2023-04-25T11:30:57;8.60;99.90
13426;DHT22;6785;57.918;12.530;2023-04-25T11:33:24;8.40;99.90
13426;DHT22;6785;57.918;12.530;2023-04-25T11:35:53;8.40;99.90
13426;DHT22;6785;57.918;12.530;2023-04-25T11:38:21;8.60;99.90
13426;DHT22;6785;57.918;12.530;2023-04-25T11:40:50;8.60;99.90
13426;DHT22;6785;57.918;12.530;2023-04-25T11:43:17;8.50;99.90
13426;DHT22;6785;57.918;12.530;2023-04-25T11:45:46;8.40;99.90
13426;DHT22;6785;57.918;12.530;2023-04-25T11:48:14;8.30;99.90
13426;DHT22;6785;57.918;12.530;2023-04-25T11:50:41;8.10;99.90
13426;DHT22;6785;57.918;12.530;2023-04-25T11:53:08;8.00;99.90
13426;DHT22;6785;57.918;12.530;2023-04-25T11:55:36;8.00;99.90
13426;DHT22;6785;57.918;12.530;2023-04-25T11:58:04;8.20;99.90
13426;DHT22;6785;57.918;12.530;2023-04-25T12:00:31;8.40;99.90
13426;DHT22;6785;57.918;12.530;2023-04-25T12:02:58;8.60;99.90
13426;DHT22;6785;57.918;12.530;2023-04-25T12:05:28;8.70;99.90
13426;DHT22;6785;57.918;12.530;2023-04-25T12:07:56;8.50;99.90
13426;DHT22;6785;57.918;12.530;2023-04-25T12:10:24;8.30;99.90
13426;DHT22;6785;57.918;12.530;2023-04-25T12:12:51;8.20;99.90
13426;DHT22;6785;57.918;12.530;2023-04-25T12:15:25;8.10;99.90
13426;DHT22;6785;57.918;12.530;2023-04-25T12:17:53;8.20;99.90
13426;DHT22;6785;57.918;12.530;2023-04-25T12:20:21;8.30;99.90
13426;DHT22;6785;57.918;12.530;2023-04-25T12:22:52;8.10;99.90
13426;DHT22;6785;57.918;12.530;2023-04-25T12:25:34;8.00;99.90
13426;DHT22;6785;57.918;12.530;2023-04-25T12:28:12;8.00;99.90
13426;DHT22;6785;57.918;12.530;2023-04-25T12:30:55;8.00;99.90
13426;DHT22;6785;57.918;12.530;2023-04-25T12:33:23;8.10;99.90
13426;DHT22;6785;57.918;12.530;2023-04-25T12:35:49;8.10;99.90
13426;DHT22;6785;57.918;12.530;2023-04-25T12:38:26;8.20;99.90
13426;DHT22;6785;57.918;12.530;2023-04-25T12:40:54;8.00;99.90
13426;DHT22;6785;57.918;12.530;2023-04-25T12:43:21;7.80;99.90
13426;DHT22;6785;57.918;12.530;2023-04-25T12:45:48;7.90;99.90
13426;DHT22;6785;57.918;12.530;2023-04-25T12:48:16;8.10;99.90
13426;DHT22;6785;57.918;12.530;2023-04-25T12:50:43;8.20;99.90
13426;DHT22;6785;57.918;12.530;2023-04-25T12:53:10;8.00;99.90
13426;DHT22;6785;57.918;12.530;2023-04-25T12:55:38;8.00;99.90
13426;DHT22;6785;57.918;12.530;2023-04-25T12:58:05;8.20;99.90
13426;DHT22;6785;57.918;12.530;2023-04-25T13:00:33;8.20;99.90
13426;DHT22;6785;57.918;12.530;2023-04-25T13:02:59;8.30;99.90
13426;DHT22;6785;57.918;12.530;2023-04-25T13:05:26;8.40;99.90
13426;DHT22;6785;57.918;12.530;2023-04-25T13:07:53;8.60;99.90
13426;DHT22;6785;57.918;12.530;2023-04-25T13:10:20;8.40;99.90
13426;DHT22;6785;57.918;12.530;2023-04-25T13:12:48;8.40;99.90
13426;DHT22;6785;57.918;12.530;2023-04-25T13:15:16;8.30;99.90
13426;DHT22;6785;57.918;12.530;2023-04-25T13:17:43;8.10;99.90
13426;DHT22;6785;57.918;12.530;2023-04-25T13:20:10;8.00;99.90
13426;DHT22;6785;57.918;12.530;2023-04-25T13:22:37;8.00;99.90
13426;DHT22;6785;57.918;12.530;2023-04-25T13:25:06;7.80;99.90
13426;DHT22;6785;57.918;12.530;2023-04-25T13:27:33;7.60;99.90
13426;DHT22;6785;57.918;12.530;2023-04-25T13:30:03;7.70;99.90
13426;DHT22;6785;57.918;12.530;2023-04-25T13:32:32;7.70;99.90
13426;DHT22;6785;57.918;12.530;2023-04-25T13:35:01;7.60;99.90
13426;DHT22;6785;57.918;12.530;2023-04-25T13:37:28;7.60;99.90
13426;DHT22;6785;57.918;12.530;2023-04-25T13:39:56;7.70;99.90
13426;DHT22;6785;57.918;12.530;2023-04-25T13:42:23;7.60;99.90
13426;DHT22;6785;57.918;12.530;2023-04-25T13:44:50;7.50;99.90
13426;DHT22;6785;57.918;12.530;2023-04-25T13:47:18;7.30;99.90
13426;DHT22;6785;57.918;12.530;2023-04-25T13:49:44;7.40;99.90
13426;DHT22;6785;57.918;12.530;2023-04-25T13:52:11;7.30;99.90
13426;DHT22;6785;57.918;12.530;2023-04-25T13:54:38;7.40;99.90
13426;DHT22;6785;57.918;12.530;2023-04-25T13:57:05;7.50;99.90
13426;DHT22;6785;57.918;12.530;2023-04-25T13:59:32;7.50;99.90
13426;DHT22;6785;57.918;12.530;2023-04-25T14:01:59;7.30;99.90
13426;DHT22;6785;57.918;12.530;2023-04-25T14:04:27;7.30;99.90
13426;DHT22;6785;57.918;12.530;2023-04-25T14:06:55;7.50;99.90
13426;DHT22;6785;57.918;12.530;2023-04-25T14:09:22;7.50;99.90
13426;DHT22;6785;57.918;12.530;2023-04-25T14:11:52;7.40;99.90
13426;DHT22;6785;57.918;12.530;2023-04-25T14:14:19;7.30;99.90
13426;DHT22;6785;57.918;12.530;2023-04-25T14:16:46;7.30;99.90
13426;DHT22;6785;57.918;12.530;2023-04-25T14:19:14;7.00;99.90
13426;DHT22;6785;57.918;12.530;2023-04-25T14:21:43;7.10;99.90
13426;DHT22;6785;57.918;12.530;2023-04-25T14:24:10;7.10;99.90
13426;DHT22;6785;57.918;12.530;2023-04-25T14:26:37;7.00;99.90
13426;DHT22;6785;57.918;12.530;2023-04-25T14:29:05;7.00;99.90
13426;DHT22;6785;57.918;12.530;2023-04-25T14:31:32;7.10;99.90
13426;DHT22;6785;57.918;12.530;2023-04-25T14:33:59;7.00;99.90
13426;DHT22;6785;57.918;12.530;2023-04-25T14:36:25;7.00;99.90
13426;DHT22;6785;57.918;12.530;2023-04-25T14:38:54;6.90;99.90
13426;DHT22;6785;57.918;12.530;2023-04-25T14:41:20;6.90;99.90
13426;DHT22;6785;57.918;12.530;2023-04-25T14:43:48;7.00;99.90
13426;DHT22;6785;57.918;12.530;2023-04-25T14:46:15;7.00;99.90
13426;DHT22;6785;57.918;12.530;2023-04-25T14:48:42;6.90;99.90
13426;DHT22;6785;57.918;12.530;2023-04-25T14:51:09;7.10;99.90
13426;DHT22;6785;57.918;12.530;2023-04-25T14:53:35;7.10;99.90
13426;DHT22;6785;57.918;12.530;2023-04-25T14:56:04;7.00;99.90
13426;DHT22;6785;57.918;12.530;2023-04-25T14:58:31;7.10;99.90
13426;DHT22;6785;57.918;12.530;2023-04-25T15:00:58;7.10;99.90
13426;DHT22;6785;57.918;12.530;2023-04-25T15:03:25;6.90;99.90
13426;DHT22;6785;57.918;12.530;2023-04-25T15:05:52;6.80;99.90
13426;DHT22;6785;57.918;12.530;2023-04-25T15:08:19;6.90;99.90
13426;DHT22;6785;57.918;12.530;2023-04-25T15:10:46;6.90;99.90
13426;DHT22;6785;57.918;12.530;2023-04-25T15:13:15;6.80;99.90
13426;DHT22;6785;57.918;12.530;2023-04-25T15:15:41;6.70;99.90
13426;DHT22;6785;57.918;12.530;2023-04-25T15:18:08;6.70;99.90
13426;DHT22;6785;57.918;12.530;2023-04-25T15:20:35;6.50;99.90
13426;DHT22;6785;57.918;12.530;2023-04-25T15:23:02;6.40;99.90
13426;DHT22;6785;57.918;12.530;2023-04-25T15:25:30;6.50;99.90
13426;DHT22;6785;57.918;12.530;2023-04-25T15:27:56;6.60;99.90
13426;DHT22;6785;57.918;12.530;2023-04-25T15:30:25;6.60;99.90
13426;DHT22;6785;57.918;12.530;2023-04-25T15:32:51;6.60;99.90
13426;DHT22;6785;57.918;12.530;2023-04-25T15:35:18;6.50;99.90
13426;DHT22;6785;57.918;12.530;2023-04-25T15:37:45;6.50;99.90
13426;DHT22;6785;57.918;12.530;2023-04-25T15:40:14;6.50;99.90
13426;DHT22;6785;57.918;12.530;2023-04-25T15:42:42;6.50;99.90
13426;DHT22;6785;57.918;12.530;2023-04-25T15:45:12;6.30;99.90
13426;DHT22;6785;57.918;12.530;2023-04-25T15:47:41;6.40;99.90